x

West Washington - 300nm West Of Aberdeen, Wa (46005) Wave Buoy

6:50am - Mon 29th Dec 2014 All times are UTC.

  • Sig Wave height 7.9ft
  • Swell Direction
  • Peak Period 9s
  • Average Period 7s
  • Wind
    13mph, 18mph gusts
  • Sea Temp 54°f
  • Air Temp 48°f
  • Sea Pressure 1029.8mb

More Historic Weather Station data

Upgrade to MSW Pro to gain access to the past 30 days of data for over 8000 Wavebouys and Weather Stations around the globe.

Join Pro

Comparision Forecast

View Surf forecast
   
Mon 12/29 6:50am 8ft 9s 7s 13 18 mph 1029.8mb 54f 48f
5:50am 8.5ft 10s 7s 16 18 mph 1029.9mb 54f 48f
4:50am 8ft 9s 7s 13 16 mph 1029.9mb 54f 48f
3:50am 8ft 10s 8s 13 18 mph 1029.9mb 54f 48f
2:50am 8ft 10s 8s 11 16 mph 1029.9mb 54f 48f
1:50am 8ft 11s 8s 9 13 mph 1030mb 54f 48f
12:50am 9ft 10s 8s 9 13 mph 1029.8mb 54f 48f
Sun 12/28 11:50pm 9ft 9s 8s 11 16 mph 1030.1mb 54f 49f
10:50pm 8ft 11s 8s 11 16 mph 1030.3mb 54f 49f
9:50pm 8ft 10s 8s 9 11 mph 1030.5mb 54f 49f
8:50pm 9ft 10s 8s 9 11 mph 1031.1mb 54f 49f
7:50pm 10ft 11s 8s 9 11 mph 1031.6mb 54f 49f
6:50pm 10ft 11s 8s 13 18 mph 1032mb 54f 49f
5:50pm 10ft 14s 8s 16 18 mph 1031.7mb 54f 49f
4:50pm 10ft 14s 8s 13 18 mph 1031.1mb 54f 49f
3:50pm 11ft 13s 8s 13 20 mph 1030.7mb 54f 49f
2:50pm 10.5ft 13s 8s 11 16 mph 1030.4mb 54f 49f
1:50pm 11ft 14s 8s 16 20 mph 1030mb 54f 49f
12:50pm 10.5ft 14s 8s 16 22 mph 1030.5mb 54f 49f
11:50am 11.5ft 11s 8s 11 18 mph 1030.8mb 54f 49f
10:50am 11.5ft 13s 9s 11 16 mph 1030.8mb 54f 49f
9:50am 11ft 14s 8s 11 18 mph 1030.4mb 54f 49f
8:50am 11.5ft 14s 8s 11 18 mph 1030.4mb 54f 50f
7:50am 11ft 14s 8s 11 16 mph 1030.2mb 54f 51f
6:50am 9.5ft 14s 8s 11 16 mph 1030mb 54f 51f
5:50am 10.5ft 15s 8s 16 20 mph 1029.7mb 54f 51f
4:50am 10.5ft 14s 8s 18 22 mph 1029.4mb 54f 51f
3:50am 9.5ft 14s 8s 20 25 mph 1029.2mb 54f 50f
2:50am 10ft 14s 8s 18 22 mph 1028.7mb 54f 51f
1:50am 10.5ft 14s 8s 18 22 mph 1028.1mb 54f 51f
12:50am 10ft 14s 8s 20 27 mph 1027.7mb 54f 50f
Sat 12/27 11:50pm 8.5ft 14s 7s 20 25 mph 1027.6mb 54f 49f
10:50pm 9ft 14s 7s 22 27 mph 1027.2mb 54f 50f
9:50pm 9ft 13s 7s 20 25 mph 1027.1mb 54f 50f
8:50pm 9ft 13s 8s 22 25 mph 1027mb 54f 50f
7:50pm 10ft 14s 9s 18 20 mph 1027.6mb 54f 53f
6:50pm 10ft 14s 9s 18 20 mph 1027.6mb 54f 53f
5:50pm 9ft 14s 9s 16 20 mph 1027.2mb 54f 53f
4:50pm 9ft 14s 9s 16 18 mph 1026.8mb 54f 53f
3:50pm 9ft 14s 10s 16 18 mph 1026.5mb 54f 52f
2:50pm 9ft 14s 9s 13 18 mph 1026.3mb 54f 52f
1:50pm 9.5ft 14s 10s 13 18 mph 1026.1mb 54f 52f
12:50pm 11ft 14s 10s 13 18 mph 1026.5mb 54f 52f
11:50am 9.5ft 14s 10s 9 13 mph 1026.5mb 54f 51f
10:50am 9ft 15s 9s 9 11 mph 1026.6mb 54f 51f
9:50am 9ft 14s 9s 7 9 mph 1027.1mb 54f 51f
8:50am 9ft 15s 9s 11 13 mph 1027.4mb 54f 51f
7:50am 9ft 14s 9s 11 16 mph 1027.8mb 54f 51f
6:50am 10ft 13s 9s 9 11 mph 1028.1mb 54f 51f
5:50am 8.5ft 13s 9s 7 11 mph 1028.3mb 54f 51f
4:50am 10ft 14s 9s 11 13 mph 1028.6mb 54f 51f
3:50am 11ft 13s 10s 11 16 mph 1028.2mb 54f 51f
2:50am 11ft 14s 9s 11 16 mph 1028mb 54f 51f
1:50am 10.5ft 15s 9s 9 13 mph 1028mb 54f 51f
12:50am 10ft 13s 9s 13 18 mph 1027.8mb 54f 51f
Fri 12/26 11:50pm 11ft 13s 9s 13 18 mph 1027.4mb 54f 51f
10:50pm 11ft 12s 9s 13 18 mph 1027.2mb 55f 51f
9:50pm 10ft 12s 9s 11 16 mph 1027.1mb 55f 51f
8:50pm 10ft 13s 9s 11 13 mph 1027.7mb 55f 51f
7:50pm 9ft 12s 9s 11 13 mph 1028.3mb 55f 51f
6:50pm 9.5ft 14s 9s 11 18 mph 1028.8mb 55f 52f
5:50pm 10ft 12s 9s 11 13 mph 1028.5mb 55f 52f
4:50pm 8.5ft 12s 8s 11 13 mph 1027.9mb 55f 52f
3:50pm 9ft 10s 8s 13 16 mph 1027.9mb 55f 52f
2:50pm 10ft 11s 8s 11 13 mph 1027.7mb 55f 52f
1:50pm 8.5ft 10s 7s 13 18 mph 1027.7mb 55f 51f
12:50pm 9ft 11s 8s 13 16 mph 1027.5mb 55f 51f
11:50am 9ft 9s 8s 13 18 mph 1027.6mb 55f 52f
10:50am 9ft 11s 7s 11 16 mph 1027.5mb 55f 52f
9:50am 9ft 11s 7s 16 20 mph 1027.2mb 55f 51f
8:50am 9ft 10s 7s 13 18 mph 1027.3mb 55f 52f
7:50am 9ft 12s 8s 13 16 mph 1027.3mb 55f 51f
6:50am 9ft 10s 7s 13 16 mph 1027.4mb 55f 52f
5:50am 9ft 9s 7s 16 18 mph 1027.5mb 55f 52f
4:50am 9ft 9s 7s 16 20 mph 1027.4mb 55f 53f
3:50am 9ft 9s 7s 16 18 mph 1027.2mb 55f 52f
2:50am 8.5ft 10s 7s 18 20 mph 1027.2mb 55f 52f
1:50am 9ft 9s 7s 18 22 mph 1027.1mb 55f 52f
12:50am 9ft 10s 7s 18 20 mph 1026.8mb 55f 52f
Thu 12/25 11:50pm 9ft 9s 7s 18 22 mph 1026.7mb 55f 53f
10:50pm 9ft 10s 7s 16 20 mph 1026.6mb 55f 52f
9:50pm 10ft 10s 7s 18 20 mph 1027mb 55f 52f
8:50pm 10ft 10s 7s 20 25 mph 1027.5mb 55f 51f
7:50pm 11ft 13s 7s 20 27 mph 1028.1mb 55f 51f
6:50pm 10ft 12s 7s 20 25 mph 1028.1mb 55f 53f
5:50pm 11ft 10s 7s 18 22 mph 1027.4mb 55f 52f
4:50pm 10ft 11s 7s 20 25 mph 1026.9mb 55f 52f
3:50pm 11ft 8s 7s 20 22 mph 1026.7mb 54f 52f
2:50pm 10ft 12s 7s 18 22 mph 1026.6mb 54f 51f
1:50pm 10.5ft 8s 7s 22 27 mph 1026.6mb 54f 51f
12:50pm 12ft 11s 8s 22 31 mph 1026.5mb 54f 52f
11:50am 11ft 11s 8s 20 25 mph 1027mb 54f 51f
10:50am 11ft 10s 8s 22 29 mph 1026.9mb 54f 51f
9:50am 11.5ft 11s 8s 20 25 mph 1026.9mb 54f 51f
8:50am 10.5ft 11s 7s 20 25 mph 1026.7mb 54f 51f